Time;durP1;ratioP1;P1;durP2;ratioP2;P2;SDS_P1;SDS_P2;PMS_P1;PMS_P2;Temp;Humidity;BMP_temperature;BMP_pressure;BME280_temperature;BME280_humidity;BME280_pressure;Samples;Min_cycle;Max_cycle;Signal;HPM_P1;HPM_P2
2021/06/15 00:01:29;;;;;;;7.10;3.25;;;19.40;86.90;;;;;;5019372;28;20176;-77
2021/06/15 00:03:55;;;;;;;8.13;3.65;;;19.40;87.10;;;;;;5030148;28;20744;-78
2021/06/15 00:06:21;;;;;;;10.32;3.83;;;;;;;;;;5008432;28;20130;-77
2021/06/15 00:08:47;;;;;;;10.27;4.85;;;;;;;;;;5013004;28;20030;-77
2021/06/15 00:11:13;;;;;;;19.15;7.28;;;19.50;87.70;;;;;;5014524;28;20030;-77
2021/06/15 00:13:39;;;;;;;5.18;3.05;;;;;;;;;;5014220;28;20087;-79
2021/06/15 00:16:04;;;;;;;6.32;3.78;;;19.50;88.00;;;;;;5014397;28;20125;-78
2021/06/15 00:18:32;;;;;;;5.75;3.67;;;19.50;88.00;;;;;;5013093;28;20049;-76
2021/06/15 00:20:58;;;;;;;5.78;2.92;;;19.50;88.00;;;;;;5013037;28;20061;-80
2021/06/15 00:23:23;;;;;;;6.43;3.20;;;19.50;88.30;;;;;;5013252;28;20432;-77
2021/06/15 00:25:49;;;;;;;15.13;5.85;;;19.50;88.40;;;;;;5018559;28;20029;-80
2021/06/15 00:28:14;;;;;;;6.28;3.22;;;22.00;90.10;;;;;;5009646;28;20029;-79
2021/06/15 00:30:40;;;;;;;5.63;3.20;;;19.40;89.50;;;;;;5018954;28;20025;-77
2021/06/15 00:33:07;;;;;;;5.88;3.40;;;;;;;;;;5012546;28;20515;-77
2021/06/15 00:35:33;;;;;;;9.13;5.13;;;;;;;;;;5019119;28;20042;-77
2021/06/15 00:37:59;;;;;;;9.18;4.32;;;;;;;;;;5012377;28;20044;-79
2021/06/15 00:40:25;;;;;;;4.53;3.05;;;;;;;;;;5015197;28;20148;-77
2021/06/15 00:42:51;;;;;;;5.07;2.95;;;19.20;90.10;;;;;;5014865;28;20080;-79
2021/06/15 00:45:21;;;;;;;4.13;2.65;;;19.10;90.10;;;;;;5017949;28;20111;-79
2021/06/15 00:47:48;;;;;;;4.82;3.42;;;;;;;;;;5015456;28;20528;-77
2021/06/15 00:50:14;;;;;;;4.82;2.80;;;;;;;;;;5014282;28;20061;-77
2021/06/15 00:52:40;;;;;;;12.50;5.32;;;;;;;;;;5026978;28;20025;-80
2021/06/15 00:55:07;;;;;;;5.32;2.90;;;;;;;;;;5014563;28;20037;-77
2021/06/15 00:57:33;;;;;;;10.52;3.58;;;;;;;;;;5014934;28;20049;-78
2021/06/15 00:59:59;;;;;;;4.90;3.10;;;;;;;;;;5009775;28;20029;-78
2021/06/15 01:02:27;;;;;;;5.18;3.08;;;18.90;91.10;;;;;;5007372;28;20128;-78
2021/06/15 01:04:54;;;;;;;4.38;2.75;;;;;;;;;;5013469;28;20139;-77
2021/06/15 01:07:26;;;;;;;7.15;3.55;;;18.70;91.90;;;;;;5018763;28;20040;-81
2021/06/15 01:10:01;;;;;;;5.63;2.67;;;18.60;92.00;;;;;;5019352;28;20722;-80
2021/06/15 01:12:54;;;;;;;7.75;2.90;;;18.60;92.30;;;;;;5015739;28;20036;-76
2021/06/15 01:15:30;;;;;;;4.57;2.85;;;18.50;92.40;;;;;;5012655;28;20112;-79
2021/06/15 01:18:04;;;;;;;5.85;3.00;;;18.50;92.80;;;;;;5007622;28;20021;-79
2021/06/15 01:20:40;;;;;;;5.15;2.83;;;18.50;92.80;;;;;;5007490;28;20056;-78
2021/06/15 01:23:29;;;;;;;6.60;3.70;;;19.00;94.00;;;;;;5012040;28;20106;-78
2021/06/15 01:26:05;;;;;;;4.63;3.00;;;18.30;93.50;;;;;;5019635;28;20053;-76
2021/06/15 01:28:41;;;;;;;7.55;3.17;;;18.30;93.50;;;;;;5013338;28;20146;-78
2021/06/15 01:31:22;;;;;;;4.35;3.13;;;18.20;93.60;;;;;;5008940;28;20920;-77
2021/06/15 01:33:55;;;;;;;4.20;2.80;;;18.20;93.90;;;;;;5008260;28;20036;-78
2021/06/15 01:36:25;;;;;;;8.52;4.30;;;18.10;94.00;;;;;;5015822;28;20033;-77
2021/06/15 01:38:59;;;;;;;9.02;4.85;;;18.10;94.20;;;;;;5014741;28;20036;-78
2021/06/15 01:41:31;;;;;;;6.93;3.10;;;18.00;94.40;;;;;;5022603;28;20033;-79
2021/06/15 01:44:06;;;;;;;9.65;4.72;;;18.00;94.80;;;;;;5014501;28;20061;-79
2021/06/15 01:46:38;;;;;;;4.78;3.22;;;18.00;94.80;;;;;;5027585;28;20044;-79
2021/06/15 01:49:09;;;;;;;6.80;3.13;;;18.00;95.00;;;;;;4997921;28;20030;-80
2021/06/15 01:51:35;;;;;;;6.25;4.55;;;;;;;;;;5009216;28;20036;-78
2021/06/15 01:54:10;;;;;;;6.25;3.55;;;18.00;95.20;;;;;;5017182;28;20040;-79
2021/06/15 01:56:42;;;;;;;7.85;3.83;;;18.00;95.20;;;;;;5012243;28;20041;-77
2021/06/15 01:59:12;;;;;;;4.15;2.97;;;17.90;95.20;;;;;;5014334;28;20041;-78
2021/06/15 02:01:44;;;;;;;5.45;3.20;;;17.90;95.40;;;;;;5008556;28;20048;-77
2021/06/15 02:04:10;;;;;;;4.88;2.83;;;17.90;95.40;;;;;;5009839;28;20029;-81
2021/06/15 02:06:37;;;;;;;4.95;2.83;;;17.90;95.50;;;;;;5015083;28;20487;-78
2021/06/15 02:09:06;;;;;;;5.90;3.25;;;17.80;95.70;;;;;;5015097;28;20044;-79
2021/06/15 02:11:32;;;;;;;5.78;3.08;;;17.90;95.70;;;;;;5011379;28;20520;-79
2021/06/15 02:14:01;;;;;;;7.10;3.10;;;17.80;96.00;;;;;;5011630;28;20030;-76
2021/06/15 02:16:28;;;;;;;5.70;3.65;;;17.80;95.90;;;;;;5016942;28;20152;-78
2021/06/15 02:18:56;;;;;;;4.47;2.92;;;17.80;96.20;;;;;;5019622;28;20048;-78
2021/06/15 02:21:24;;;;;;;4.93;2.97;;;17.90;96.20;;;;;;5020069;28;20388;-78
2021/06/15 02:23:57;;;;;;;5.00;2.95;;;17.80;96.20;;;;;;5010052;28;20033;-77
2021/06/15 02:26:25;;;;;;;6.13;2.88;;;17.80;96.20;;;;;;5014580;28;20033;-77
2021/06/15 02:28:51;;;;;;;6.38;3.75;;;;;;;;;;5010346;28;20113;-78
2021/06/15 02:31:22;;;;;;;6.15;2.85;;;17.80;96.50;;;;;;5012348;28;20034;-79
2021/06/15 02:33:51;;;;;;;4.47;3.13;;;17.90;97.10;;;;;;5016495;28;20068;-78
2021/06/15 02:36:28;;;;;;;5.65;3.67;;;17.70;97.30;;;;;;5017150;28;20033;-77
2021/06/15 02:38:59;;;;;;;7.07;3.83;;;17.60;96.80;;;;;;5012082;28;20091;-77
2021/06/15 02:41:26;;;;;;;6.38;3.10;;;17.40;97.40;;;;;;5011767;28;20026;-78
2021/06/15 02:43:58;;;;;;;5.05;2.90;;;17.50;97.10;;;;;;5014676;28;20080;-80
2021/06/15 02:46:27;;;;;;;6.00;3.28;;;17.50;97.20;;;;;;5017853;28;20053;-78
2021/06/15 02:48:56;;;;;;;4.88;3.10;;;17.50;97.40;;;;;;5019844;28;20026;-80
2021/06/15 02:51:26;;;;;;;4.85;2.95;;;17.50;97.40;;;;;;5011459;28;20492;-79
2021/06/15 02:54:10;;;;;;;5.45;3.20;;;;;;;;;;5012233;28;20034;-77
2021/06/15 02:56:41;;;;;;;6.20;2.95;;;;;;;;;;5020213;28;20049;-77
2021/06/15 02:59:07;;;;;;;5.03;3.05;;;;;;;;;;5018476;28;20045;-79
2021/06/15 03:01:33;;;;;;;4.63;3.00;;;;;;;;;;5010030;28;20029;-77
2021/06/15 03:03:59;;;;;;;8.73;3.00;;;;;;;;;;5027656;28;20032;-79
2021/06/15 03:06:25;;;;;;;13.93;6.13;;;;;;;;;;5028539;28;20025;-77
2021/06/15 03:08:51;;;;;;;5.75;3.30;;;;;;;;;;5014686;28;21741;-76
2021/06/15 03:11:21;;;;;;;10.57;4.65;;;17.30;98.00;;;;;;5016456;28;20153;-77
2021/06/15 03:13:50;;;;;;;9.27;4.00;;;;;;;;;;5012934;28;20022;-80
2021/06/15 03:16:19;;;;;;;8.73;3.97;;;17.20;98.30;;;;;;5020700;28;20026;-80
2021/06/15 03:18:54;;;;;;;6.18;3.25;;;17.20;98.50;;;;;;5028197;28;20025;-79
2021/06/15 03:21:23;;;;;;;6.80;3.50;;;17.20;98.70;;;;;;5012599;28;21288;-79
2021/06/15 03:23:59;;;;;;;5.38;3.42;;;17.10;98.70;;;;;;5030061;28;20114;-81
2021/06/15 03:26:30;;;;;;;8.65;4.55;;;17.00;98.70;;;;;;5032232;28;20030;-79
2021/06/15 03:28:59;;;;;;;6.10;3.10;;;17.10;99.10;;;;;;5032207;28;20021;-79
2021/06/15 03:31:28;;;;;;;5.28;3.20;;;17.00;99.20;;;;;;5031277;28;20111;-81
2021/06/15 03:33:57;;;;;;;6.95;3.72;;;17.10;99.30;;;;;;5022220;28;20033;-81
2021/06/15 03:36:24;;;;;;;4.80;3.30;;;17.20;99.70;;;;;;5027649;28;20044;-79
2021/06/15 03:38:55;;;;;;;5.45;3.47;;;17.10;99.40;;;;;;5029585;28;20121;-77
2021/06/15 03:41:21;;;;;;;5.93;2.95;;;17.30;99.50;;;;;;5036794;28;20072;-78
2021/06/15 03:43:50;;;;;;;7.90;3.63;;;17.10;99.40;;;;;;5030912;28;20045;-79
2021/06/15 03:46:19;;;;;;;5.93;3.50;;;17.00;99.40;;;;;;5030998;28;20105;-77
2021/06/15 03:48:48;;;;;;;3.97;3.03;;;17.90;99.80;;;;;;5030934;28;20022;-78
2021/06/15 03:51:29;;;;;;;6.82;3.55;;;17.00;99.70;;;;;;5028905;28;20034;-79
2021/06/15 03:54:06;;;;;;;6.13;3.60;;;17.00;99.90;;;;;;5031317;28;20735;-78
2021/06/15 03:56:36;;;;;;;5.88;3.42;;;18.30;99.90;;;;;;5028747;28;20040;-78
2021/06/15 03:59:04;;;;;;;6.10;3.15;;;17.20;99.90;;;;;;5025509;28;20041;-79
2021/06/15 04:01:33;;;;;;;5.13;3.10;;;16.90;99.90;;;;;;5016286;28;21760;-78
2021/06/15 04:04:01;;;;;;;6.18;3.30;;;16.90;99.90;;;;;;5028072;28;20025;-76
2021/06/15 04:06:27;;;;;;;4.50;3.47;;;16.80;99.90;;;;;;5037958;28;20067;-76
2021/06/15 04:09:01;;;;;;;5.43;3.30;;;16.80;99.90;;;;;;5033286;28;20045;-77
2021/06/15 04:11:29;;;;;;;5.68;3.83;;;19.10;99.90;;;;;;5026537;28;20471;-77
2021/06/15 04:13:55;;;;;;;5.03;3.30;;;16.90;99.90;;;;;;5023351;28;20075;-79
2021/06/15 04:16:21;;;;;;;6.30;3.25;;;16.90;99.90;;;;;;5016808;28;20162;-79
2021/06/15 04:18:48;;;;;;;5.07;3.00;;;16.90;99.90;;;;;;5009887;28;20692;-76
2021/06/15 04:21:15;;;;;;;5.50;3.55;;;16.90;99.90;;;;;;5010254;28;20388;-79
2021/06/15 04:24:01;;;;;;;6.30;3.72;;;16.80;99.90;;;;;;5014252;28;20036;-78
2021/06/15 04:26:28;;;;;;;6.45;3.83;;;16.80;99.90;;;;;;5010575;28;20045;-79
2021/06/15 04:28:54;;;;;;;6.63;3.50;;;16.80;99.90;;;;;;5014424;28;20030;-79
2021/06/15 04:31:23;;;;;;;5.97;3.47;;;16.90;99.90;;;;;;5032720;28;20036;-79
2021/06/15 04:33:50;;;;;;;5.60;3.63;;;16.90;99.90;;;;;;5031979;28;20489;-79
2021/06/15 04:36:18;;;;;;;5.53;3.60;;;17.00;99.90;;;;;;5025272;28;20037;-80
2021/06/15 04:38:48;;;;;;;6.60;3.53;;;18.30;99.90;;;;;;5037060;28;20032;-77
2021/06/15 04:41:17;;;;;;;6.60;3.63;;;17.00;99.90;;;;;;5014190;28;20037;-78
2021/06/15 04:43:54;;;;;;;11.20;4.18;;;17.00;99.90;;;;;;5025465;28;20039;-79
2021/06/15 04:46:51;;;;;;;5.32;3.58;;;17.00;99.90;;;;;;5026742;28;20147;-77
2021/06/15 04:49:25;;;;;;;7.80;4.18;;;17.00;99.90;;;;;;5017818;28;20021;-77
2021/06/15 04:51:55;;;;;;;9.27;4.10;;;16.90;99.90;;;;;;5011337;28;20025;-79
2021/06/15 04:54:22;;;;;;;7.30;4.00;;;17.00;99.90;;;;;;5013892;28;20029;-78
2021/06/15 04:56:50;;;;;;;7.32;4.00;;;17.20;99.90;;;;;;5018032;28;20084;-77
2021/06/15 04:59:19;;;;;;;8.85;4.03;;;17.20;99.90;;;;;;5015071;28;20034;-76
2021/06/15 05:01:45;;;;;;;7.27;3.53;;;17.30;99.90;;;;;;5019033;28;20034;-78
2021/06/15 05:04:12;;;;;;;8.05;4.00;;;17.40;99.90;;;;;;5012637;28;20029;-78
2021/06/15 05:06:42;;;;;;;5.50;3.65;;;20.20;99.90;;;;;;5014556;28;20594;-78
2021/06/15 05:09:09;;;;;;;8.23;3.78;;;17.50;99.90;;;;;;5020271;28;20546;-77
2021/06/15 05:11:38;;;;;;;5.68;3.47;;;17.60;99.90;;;;;;5024411;28;20040;-78
2021/06/15 05:14:11;;;;;;;6.93;3.97;;;17.60;99.90;;;;;;5017761;28;20116;-81
2021/06/15 05:16:39;;;;;;;7.25;4.22;;;17.90;99.70;;;;;;5014233;28;20050;-79
2021/06/15 05:19:05;;;;;;;5.88;3.90;;;;;;;;;;5013103;28;20036;-77
2021/06/15 05:21:39;;;;;;;8.60;4.32;;;19.30;96.60;;;;;;5010357;28;20041;-78
2021/06/15 05:24:09;;;;;;;6.75;4.10;;;20.50;93.80;;;;;;5012139;28;20037;-79
2021/06/15 05:26:34;;;;;;;5.25;3.78;;;21.00;93.20;;;;;;5010087;28;20033;-78
2021/06/15 05:29:00;;;;;;;6.38;3.55;;;21.90;91.60;;;;;;5012859;28;20064;-78
2021/06/15 05:31:25;;;;;;;5.13;3.67;;;22.60;89.70;;;;;;5023467;28;20025;-77
2021/06/15 05:33:52;;;;;;;6.65;3.35;;;;;;;;;;5014307;28;20064;-78
2021/06/15 05:36:19;;;;;;;13.65;8.60;;;23.50;83.30;;;;;;5004248;28;20042;-77
2021/06/15 05:38:45;;;;;;;8.73;3.78;;;25.30;81.70;;;;;;5011663;28;20037;-76
2021/06/15 05:41:12;;;;;;;6.35;3.70;;;24.50;76.80;;;;;;5005734;28;20022;-77
2021/06/15 05:43:37;;;;;;;5.18;3.17;;;24.30;77.20;;;;;;5017139;28;20029;-78
2021/06/15 05:46:03;;;;;;;6.03;3.92;;;24.40;77.50;;;;;;5019291;28;20029;-79
2021/06/15 05:48:29;;;;;;;5.07;3.20;;;24.00;78.00;;;;;;5004920;28;20038;-76
2021/06/15 05:50:55;;;;;;;11.48;4.03;;;24.00;78.80;;;;;;5009322;28;20059;-76
2021/06/15 05:53:20;;;;;;;5.50;3.13;;;24.00;79.40;;;;;;5016673;28;20057;-76
2021/06/15 05:55:46;;;;;;;7.40;3.20;;;24.80;76.40;;;;;;5011398;28;20033;-77
2021/06/15 05:58:12;;;;;;;8.13;4.28;;;;;;;;;;5006131;28;20037;-79
2021/06/15 06:00:38;;;;;;;11.45;4.25;;;24.40;76.30;;;;;;5008105;28;20029;-77
2021/06/15 06:03:05;;;;;;;9.77;3.97;;;24.30;77.10;;;;;;5011186;28;20037;-77
2021/06/15 06:08:15;;;;;;;6.60;3.38;;;24.70;75.70;;;;;;5011276;28;20295;-77
2021/06/15 06:10:41;;;;;;;8.32;3.72;;;24.70;75.30;;;;;;5022633;28;20022;-77
2021/06/15 06:13:11;;;;;;;6.40;3.80;;;24.50;75.90;;;;;;5010814;28;20028;-76
2021/06/15 06:15:37;;;;;;;5.45;3.10;;;;;;;;;;5014334;28;20518;-78
2021/06/15 06:18:07;;;;;;;6.82;3.58;;;24.10;76.80;;;;;;5012080;28;20033;-76
2021/06/15 06:20:36;;;;;;;6.30;3.75;;;23.70;77.60;;;;;;5021538;28;20038;-78
2021/06/15 06:23:03;;;;;;;6.00;3.10;;;23.80;77.70;;;;;;5013552;28;20030;-78
2021/06/15 06:25:31;;;;;;;5.70;3.35;;;24.00;78.10;;;;;;5007318;28;20051;-76
2021/06/15 06:27:57;;;;;;;8.43;3.15;;;;;;;;;;5006746;28;20476;-79
2021/06/15 06:30:23;;;;;;;5.80;3.63;;;23.80;78.20;;;;;;5008822;28;20052;-80
2021/06/15 06:32:49;;;;;;;6.70;3.50;;;23.90;77.80;;;;;;5022737;28;20026;-76
2021/06/15 06:35:14;;;;;;;6.55;3.30;;;23.90;77.90;;;;;;5018497;28;20076;-77
2021/06/15 06:37:40;;;;;;;7.60;3.35;;;24.70;78.40;;;;;;5008306;28;20036;-77
2021/06/15 06:40:06;;;;;;;5.03;3.40;;;24.10;77.30;;;;;;5020488;28;20128;-78
2021/06/15 06:42:33;;;;;;;5.00;3.00;;;;;;;;;;5005542;28;20072;-77
2021/06/15 06:44:59;;;;;;;5.00;3.03;;;;;;;;;;5009013;28;20038;-78
2021/06/15 06:47:24;;;;;;;6.25;3.60;;;23.70;78.70;;;;;;5007873;28;20057;-77
2021/06/15 06:49:50;;;;;;;4.93;3.30;;;23.80;79.60;;;;;;5012901;28;20129;-77
2021/06/15 06:52:16;;;;;;;6.75;3.58;;;24.10;78.50;;;;;;5009952;28;20048;-78
2021/06/15 06:54:41;;;;;;;6.75;3.20;;;24.20;78.80;;;;;;5016981;28;20620;-77
2021/06/15 06:57:09;;;;;;;7.10;3.50;;;;;;;;;;5005156;28;20030;-78
2021/06/15 06:59:35;;;;;;;5.53;3.60;;;;;;;;;;5005646;28;20539;-77
2021/06/15 07:02:00;;;;;;;5.30;3.00;;;24.20;79.50;;;;;;5015090;28;20099;-76
2021/06/15 07:04:26;;;;;;;5.95;3.20;;;24.10;80.00;;;;;;5015165;28;20064;-77
2021/06/15 07:06:52;;;;;;;13.75;7.45;;;26.00;81.60;;;;;;5017458;28;20046;-77
2021/06/15 07:09:18;;;;;;;6.65;3.55;;;;;;;;;;5020726;28;20026;-77
2021/06/15 07:11:44;;;;;;;6.95;3.60;;;;;;;;;;5018675;28;20029;-78
2021/06/15 07:14:10;;;;;;;5.85;3.30;;;23.80;80.80;;;;;;5018209;28;20105;-77
2021/06/15 07:16:35;;;;;;;5.15;2.83;;;23.80;80.70;;;;;;5017028;28;20089;-78
2021/06/15 07:19:01;;;;;;;7.55;4.05;;;24.20;81.00;;;;;;5015259;28;20416;-77
2021/06/15 07:21:29;;;;;;;7.80;3.15;;;23.90;79.50;;;;;;5017984;28;20041;-76
2021/06/15 07:23:54;;;;;;;4.97;2.95;;;24.00;79.30;;;;;;5003512;28;20749;-78
2021/06/15 07:26:21;;;;;;;4.95;2.60;;;24.00;79.20;;;;;;5012304;28;20030;-80
2021/06/15 07:28:47;;;;;;;5.20;2.47;;;;;;;;;;5014235;28;20036;-77
2021/06/15 07:31:13;;;;;;;4.05;2.60;;;24.20;77.80;;;;;;5024726;28;20109;-79
2021/06/15 07:33:38;;;;;;;4.63;2.72;;;24.50;77.70;;;;;;5015538;28;20098;-79
2021/06/15 07:36:05;;;;;;;6.00;3.25;;;24.60;77.80;;;;;;5028096;28;22580;-78
2021/06/15 07:38:31;;;;;;;9.77;4.25;;;;;;;;;;5017679;28;20037;-78
2021/06/15 07:40:57;;;;;;;15.77;8.50;;;;;;;;;;5037157;28;20026;-80
2021/06/15 07:43:24;;;;;;;4.93;2.55;;;24.80;74.70;;;;;;5020434;28;20037;-77
2021/06/15 07:45:49;;;;;;;4.95;2.72;;;24.70;74.70;;;;;;5026660;28;20068;-78
2021/06/15 07:48:15;;;;;;;5.50;2.30;;;24.90;75.20;;;;;;5015715;28;20500;-78
2021/06/15 07:50:41;;;;;;;4.30;2.50;;;;;;;;;;5015322;28;20508;-80
2021/06/15 07:53:07;;;;;;;8.23;2.28;;;;;;;;;;5018456;28;20060;-80
2021/06/15 07:55:33;;;;;;;5.20;2.55;;;25.10;73.40;;;;;;5015446;28;20122;-81
2021/06/15 07:57:59;;;;;;;4.88;2.45;;;;;;;;;;5021356;28;20033;-80
2021/06/15 08:00:25;;;;;;;4.93;2.60;;;25.50;72.80;;;;;;5013589;28;20044;-80
2021/06/15 08:02:51;;;;;;;5.43;2.65;;;25.60;71.60;;;;;;5012852;28;20056;-78
2021/06/15 08:05:17;;;;;;;3.90;2.15;;;25.70;71.90;;;;;;5010179;28;20064;-79
2021/06/15 08:07:49;;;;;;;6.75;2.70;;;;;;;;;;5013404;28;20037;-80
2021/06/15 08:10:16;;;;;;;5.22;2.30;;;25.80;70.30;;;;;;5012672;28;20124;-80
2021/06/15 08:12:42;;;;;;;3.10;1.90;;;;;;;;;;5025985;28;20115;-80
2021/06/15 08:15:07;;;;;;;5.05;2.40;;;26.00;69.40;;;;;;5025373;28;20085;-83
2021/06/15 08:17:33;;;;;;;6.40;2.80;;;26.10;69.40;;;;;;5019306;28;20045;-81
2021/06/15 08:19:59;;;;;;;3.55;2.30;;;;;;;;;;5033163;28;20029;-80
2021/06/15 08:22:25;;;;;;;2.97;1.77;;;;;;;;;;5015554;28;20060;-80
2021/06/15 08:24:51;;;;;;;4.40;2.50;;;;;;;;;;5033811;28;20503;-82
2021/06/15 08:27:17;;;;;;;5.63;2.50;;;26.50;68.70;;;;;;5024027;28;20039;-79
2021/06/15 08:29:42;;;;;;;5.15;2.30;;;26.70;68.60;;;;;;5014809;28;20818;-81
2021/06/15 08:32:08;;;;;;;5.45;2.25;;;;;;;;;;5022949;28;20029;-82
2021/06/15 08:34:35;;;;;;;6.40;2.88;;;27.00;67.00;;;;;;5019691;28;20041;-80
2021/06/15 08:37:02;;;;;;;4.72;2.00;;;30.00;67.30;;;;;;5013251;28;20057;-81
2021/06/15 08:39:28;;;;;;;5.15;2.05;;;27.30;64.60;;;;;;5009010;28;20029;-80
2021/06/15 08:41:53;;;;;;;3.58;2.10;;;27.30;64.50;;;;;;5020852;28;20056;-80
2021/06/15 08:44:19;;;;;;;4.93;2.03;;;27.30;62.70;;;;;;5015194;28;20097;-80
2021/06/15 08:46:46;;;;;;;4.07;2.40;;;27.20;63.40;;;;;;5016091;28;20446;-81
2021/06/15 08:49:12;;;;;;;3.15;2.25;;;;;;;;;;5019240;28;20026;-80
2021/06/15 08:51:40;;;;;;;2.88;2.00;;;27.20;63.10;;;;;;5019017;28;20136;-82
2021/06/15 08:54:11;;;;;;;3.33;2.25;;;27.30;63.70;;;;;;5022224;28;20048;-81
2021/06/15 08:56:36;;;;;;;4.70;2.08;;;27.20;64.10;;;;;;5010678;28;20037;-81
2021/06/15 08:59:14;;;;;;;3.60;2.05;;;27.40;63.00;;;;;;5013544;28;20034;-81
2021/06/15 09:01:40;;;;;;;2.70;1.95;;;27.60;62.70;;;;;;4999053;28;20049;-81
2021/06/15 09:04:06;;;;;;;3.13;2.00;;;27.70;61.40;;;;;;5013133;28;20043;-83
2021/06/15 09:06:32;;;;;;;3.92;2.10;;;27.80;60.40;;;;;;5011750;28;20470;-79
2021/06/15 09:08:59;;;;;;;3.67;1.92;;;27.70;60.90;;;;;;5033049;28;20099;-83
2021/06/15 09:11:26;;;;;;;4.18;2.35;;;;;;;;;;4994712;28;20033;-80
2021/06/15 09:13:52;;;;;;;4.18;2.05;;;28.00;59.70;;;;;;5013668;28;20029;-82
2021/06/15 09:16:23;;;;;;;5.95;2.35;;;28.00;57.60;;;;;;5027259;28;20033;-81
2021/06/15 09:18:50;;;;;;;3.08;1.98;;;28.00;58.60;;;;;;5018597;28;20030;-81
2021/06/15 09:21:28;;;;;;;5.00;1.90;;;28.00;57.10;;;;;;5016315;28;20044;-82
2021/06/15 09:24:06;;;;;;;3.65;2.08;;;28.00;56.80;;;;;;5015429;28;20025;-82
2021/06/15 09:26:52;;;;;;;5.07;1.83;;;28.10;56.90;;;;;;5008974;28;20082;-79
2021/06/15 09:29:18;;;;;;;2.75;1.65;;;28.20;56.10;;;;;;5016356;28;20044;-84
2021/06/15 09:31:54;;;;;;;3.28;1.77;;;28.20;56.60;;;;;;5008078;28;20025;-82
2021/06/15 09:34:20;;;;;;;4.10;2.10;;;28.30;55.20;;;;;;5017776;28;20036;-79
2021/06/15 09:36:46;;;;;;;3.97;1.95;;;28.50;53.50;;;;;;5018066;28;20428;-79
2021/06/15 09:39:12;;;;;;;4.45;1.80;;;28.30;54.40;;;;;;5024919;28;20030;-80
2021/06/15 09:41:40;;;;;;;5.03;2.10;;;28.30;54.30;;;;;;5008685;28;20034;-80
2021/06/15 09:44:26;;;;;;;5.47;1.98;;;28.40;54.50;;;;;;5009258;28;20065;-79
2021/06/15 09:46:54;;;;;;;5.28;2.03;;;28.70;53.20;;;;;;5014985;28;20482;-80
2021/06/15 09:49:50;;;;;;;4.28;1.80;;;28.70;53.70;;;;;;5019727;28;20376;-79
2021/06/15 09:52:28;;;;;;;4.13;1.92;;;29.00;50.40;;;;;;5014726;28;20056;-78
2021/06/15 09:55:02;;;;;;;2.92;1.70;;;29.10;50.80;;;;;;5021590;28;20392;-79
2021/06/15 09:57:30;;;;;;;3.88;1.90;;;29.30;50.40;;;;;;5020915;28;20488;-78
2021/06/15 10:00:17;;;;;;;3.90;1.90;;;30.50;51.80;;;;;;5025256;28;20488;-78
2021/06/15 10:02:50;;;;;;;3.00;1.75;;;29.20;51.10;;;;;;5026290;28;20053;-78
2021/06/15 10:05:31;;;;;;;4.75;1.80;;;29.20;51.40;;;;;;5017989;28;20116;-78
2021/06/15 10:08:03;;;;;;;2.92;1.75;;;29.30;51.30;;;;;;5023613;28;20087;-78
2021/06/15 10:10:31;;;;;;;4.20;1.90;;;29.30;51.50;;;;;;5022336;28;20025;-78
2021/06/15 10:12:57;;;;;;;2.50;1.88;;;29.40;50.30;;;;;;5023342;28;20064;-80
2021/06/15 10:15:23;;;;;;;3.30;1.90;;;;;;;;;;5029318;28;20034;-79
2021/06/15 10:17:50;;;;;;;2.97;1.88;;;29.50;49.80;;;;;;5023930;28;20061;-78
2021/06/15 10:20:21;;;;;;;3.15;2.03;;;29.50;50.20;;;;;;5028091;28;20056;-78
2021/06/15 10:22:48;;;;;;;4.70;3.08;;;29.50;49.30;;;;;;5024459;28;20029;-78
2021/06/15 10:25:15;;;;;;;2.90;2.00;;;29.40;49.80;;;;;;5024047;28;20050;-79
2021/06/15 10:27:42;;;;;;;4.35;1.95;;;29.20;48.90;;;;;;5023861;28;20033;-81
2021/06/15 10:30:09;;;;;;;3.13;1.80;;;29.20;49.40;;;;;;5029787;28;20026;-80
2021/06/15 10:32:48;;;;;;;4.10;1.95;;;29.40;49.80;;;;;;5025749;28;20045;-78
2021/06/15 10:35:14;;;;;;;2.73;1.87;;;29.50;50.10;;;;;;5018500;28;20037;-81
2021/06/15 10:37:41;;;;;;;2.75;1.80;;;28.80;49.00;;;;;;5046175;28;20034;-80
2021/06/15 10:40:13;;;;;;;3.15;1.90;;;29.50;49.00;;;;;;5015745;28;20030;-80
2021/06/15 10:42:41;;;;;;;7.25;2.00;;;29.50;48.80;;;;;;5031500;28;20030;-80
2021/06/15 10:45:13;;;;;;;3.72;1.77;;;29.60;49.30;;;;;;5020615;28;20036;-81
2021/06/15 10:47:59;;;;;;;3.60;1.95;;;29.80;48.60;;;;;;5022904;28;20022;-82
2021/06/15 10:50:46;;;;;;;5.45;2.15;;;29.90;49.10;;;;;;5024401;28;20282;-79
2021/06/15 10:53:13;;;;;;;3.00;1.77;;;29.80;47.80;;;;;;5027200;28;20022;-79
2021/06/15 10:55:44;;;;;;;3.55;1.75;;;29.90;48.80;;;;;;5016807;28;20029;-79
2021/06/15 10:58:10;;;;;;;3.03;1.92;;;29.80;48.20;;;;;;5028308;28;20026;-79
2021/06/15 11:00:53;;;;;;;3.58;1.80;;;29.80;47.90;;;;;;5029867;28;20089;-79
2021/06/15 11:03:20;;;;;;;2.90;1.90;;;29.80;48.20;;;;;;5026629;28;20026;-79
2021/06/15 11:05:59;;;;;;;4.32;1.92;;;30.00;47.80;;;;;;5030500;28;20026;-79
2021/06/15 11:08:27;;;;;;;5.30;2.10;;;30.00;48.30;;;;;;5037398;28;20407;-80
2021/06/15 11:10:59;;;;;;;3.35;1.80;;;29.90;48.50;;;;;;5030510;28;20037;-79
2021/06/15 11:13:40;;;;;;;4.13;1.98;;;30.10;47.50;;;;;;5039519;28;20389;-78
2021/06/15 11:16:07;;;;;;;3.50;1.70;;;30.00;48.10;;;;;;5034097;28;20029;-78
2021/06/15 11:18:32;;;;;;;3.80;2.05;;;30.10;48.60;;;;;;5028902;28;20086;-78
2021/06/15 11:20:58;;;;;;;3.03;1.70;;;;;;;;;;5028214;28;20108;-78
2021/06/15 11:23:26;;;;;;;2.78;1.80;;;30.20;47.20;;;;;;5033356;28;20525;-77
2021/06/15 11:26:13;;;;;;;2.65;1.90;;;30.20;47.80;;;;;;5037316;28;20093;-77
2021/06/15 11:28:58;;;;;;;3.70;1.90;;;30.20;47.20;;;;;;5028300;28;20115;-78
2021/06/15 11:31:29;;;;;;;3.58;2.05;;;30.30;47.40;;;;;;5034121;28;20419;-78
2021/06/15 11:34:16;;;;;;;3.15;1.70;;;30.30;46.70;;;;;;5028957;28;20026;-78
2021/06/15 11:36:50;;;;;;;3.15;2.10;;;30.30;46.10;;;;;;5034243;28;20033;-78
2021/06/15 11:39:22;;;;;;;3.55;1.83;;;30.50;46.50;;;;;;5024875;28;20036;-78
2021/06/15 11:42:06;;;;;;;5.43;2.20;;;30.80;45.50;;;;;;5028286;28;20064;-78
2021/06/15 11:44:52;;;;;;;3.42;1.92;;;30.90;44.90;;;;;;5017523;28;20034;-77
2021/06/15 11:47:45;;;;;;;2.30;1.73;;;30.90;45.60;;;;;;5023063;28;20488;-76
2021/06/15 11:50:34;;;;;;;3.13;1.80;;;30.90;44.70;;;;;;5030289;28;20025;-78
2021/06/15 11:53:04;;;;;;;4.03;2.03;;;30.40;44.50;;;;;;5022514;28;20025;-79
2021/06/15 11:55:36;;;;;;;4.75;1.88;;;30.40;44.80;;;;;;5028700;28;20025;-78
2021/06/15 11:58:08;;;;;;;3.63;1.52;;;30.40;45.20;;;;;;5026894;28;20041;-80
2021/06/15 12:00:39;;;;;;;3.42;1.77;;;30.60;43.60;;;;;;5020521;28;20022;-79
2021/06/15 12:03:08;;;;;;;3.65;1.67;;;30.60;44.80;;;;;;5031136;28;20105;-77
2021/06/15 12:05:38;;;;;;;4.30;2.00;;;30.60;45.30;;;;;;5042963;28;20026;-78
2021/06/15 12:08:04;;;;;;;2.92;1.80;;;30.70;45.30;;;;;;5032890;28;20034;-78
2021/06/15 12:10:30;;;;;;;3.22;1.65;;;30.70;44.90;;;;;;5031032;28;20053;-78
2021/06/15 12:13:40;;;;;;;4.15;1.92;;;30.80;46.00;;;;;;5031189;28;20025;-79
2021/06/15 12:16:12;;;;;;;7.13;2.25;;;31.10;44.40;;;;;;5028061;28;20043;-79
2021/06/15 12:18:58;;;;;;;3.83;1.90;;;31.00;44.30;;;;;;5036228;28;20025;-79
2021/06/15 12:21:30;;;;;;;3.03;1.80;;;31.10;44.30;;;;;;5028578;28;20489;-76
2021/06/15 12:23:58;;;;;;;2.47;1.63;;;31.30;43.20;;;;;;5028131;28;20033;-78
2021/06/15 12:26:32;;;;;;;3.47;1.70;;;31.20;43.50;;;;;;5023728;28;20034;-78
2021/06/15 12:29:05;;;;;;;3.63;1.92;;;31.20;43.90;;;;;;5025318;28;20125;-77
2021/06/15 12:31:34;;;;;;;4.25;1.90;;;31.00;43.90;;;;;;5026372;28;20033;-78
2021/06/15 12:34:06;;;;;;;3.30;1.80;;;31.20;43.00;;;;;;5029380;28;20022;-77
2021/06/15 12:36:46;;;;;;;5.03;1.90;;;31.20;43.60;;;;;;5030947;28;20116;-77
2021/06/15 12:39:20;;;;;;;4.82;3.17;;;31.40;43.10;;;;;;5024585;28;20096;-78
2021/06/15 12:41:53;;;;;;;3.78;1.70;;;31.30;43.40;;;;;;5022981;28;20108;-77
2021/06/15 12:44:23;;;;;;;4.35;2.15;;;31.30;42.50;;;;;;5009944;28;20033;-78
2021/06/15 12:47:04;;;;;;;3.38;1.80;;;31.40;43.40;;;;;;5023779;28;20074;-77
2021/06/15 12:49:30;;;;;;;3.13;1.60;;;;;;;;;;5029679;28;20075;-78
2021/06/15 12:52:01;;;;;;;2.38;1.70;;;31.70;42.20;;;;;;5024075;28;21181;-78
2021/06/15 12:54:35;;;;;;;2.75;1.80;;;31.50;42.30;;;;;;5024000;28;20037;-77
2021/06/15 12:57:07;;;;;;;3.78;1.88;;;31.50;42.90;;;;;;5032255;28;20443;-78
2021/06/15 12:59:35;;;;;;;2.75;1.80;;;31.50;42.30;;;;;;5026654;28;20615;-77
2021/06/15 13:02:15;;;;;;;4.80;2.25;;;31.50;42.70;;;;;;5020401;28;20037;-77
2021/06/15 13:04:47;;;;;;;3.13;1.90;;;31.50;43.20;;;;;;5034382;28;20575;-78
2021/06/15 13:07:14;;;;;;;2.47;1.50;;;31.50;42.80;;;;;;5032868;28;20063;-79
2021/06/15 13:09:40;;;;;;;2.60;1.80;;;;;;;;;;5027058;28;20048;-78
2021/06/15 13:12:08;;;;;;;5.05;1.92;;;31.70;42.80;;;;;;5023856;28;20048;-77
2021/06/15 13:14:40;;;;;;;3.80;1.90;;;31.70;43.20;;;;;;5026303;28;20025;-79
2021/06/15 13:17:08;;;;;;;4.72;1.90;;;31.70;43.10;;;;;;5027146;28;20469;-80
2021/06/15 13:19:41;;;;;;;5.07;2.10;;;31.80;42.50;;;;;;5027526;28;20034;-79